Pagina principale
METAR-TAF:

METAR-TAF

Aeroporti :

Base di Solenzara

Solenzara, Francia

latitudine: 41-55N, longitudine: 009-24E, altezza: 8 m

Osservazione

Il bollettino è stato emesso 31 minuti fa, alle 16:30 UTC
Vento 4 kt da ovest, variando fra sud-ovest e ovest/nord-ovest
Temperature 10°C
Umidità 66%
Pressione 1018 hPa
Visibilità 10 km o più
nessuna nube inferiore a 1500 m e nessun cumulonembo

METAR: LFKS 201630Z AUTO 27004KT 220V300 CAVOK 10/04 Q1018

Ora: 18:01 (17:01 UTC)

Previsione

Il bollettino è stato emesso 3 ore e 1 minuti fa, alle 14:00 UTC
Previsione valida dal 20 alle 15 UTC al 21 alle 15 UTC
Vento 3 kt da sud
Visibilità 10 km o più
Nubi sparse ad un'altezza di 4000 ft
Evoluzione graduale
dal 20 alle 17 UTC al 20 alle 18 UTC
Vento 10 kt da ovest

TAF: LFKS 201400Z 2015/2115 18003KT 9999 SCT040 BECMG 2017/2018 27010KT

Osservazioni e previsioni meteorologiche di più di 4000 aeroporti (messaggi METAR e TAF).

Le stazioni disponibili sono rappresentate dai dischi gialli e rossi sulla carta.

Puntare il mouse per vedere il nome della stazione.

Clicca sopra per visualizzare le osservazioni e previsioni meteorologiche.

Per cambiare la mappa : fare clic sui pulsanti verdi con una croce nera per ingrandire, il pulsante verde con un trattino per diminuire, o sulla freccia verde per le mappe adiacenti.


METAR-TAF: